sensor_id;sensor_type;location;lat;lon;timestamp;P1;durP1;ratioP1;P2;durP2;ratioP2
75061;SDS011;63641;46.526;24.612;2023-10-08T00:00:48;7.97;;;4.47;;
75061;SDS011;63641;46.526;24.612;2023-10-08T00:03:16;6.60;;;4.72;;
75061;SDS011;63641;46.526;24.612;2023-10-08T00:05:44;5.90;;;4.60;;
75061;SDS011;63641;46.526;24.612;2023-10-08T00:08:12;6.55;;;4.13;;
75061;SDS011;63641;46.526;24.612;2023-10-08T00:10:43;6.95;;;3.90;;
75061;SDS011;63641;46.526;24.612;2023-10-08T00:13:12;7.15;;;4.85;;
75061;SDS011;63641;46.526;24.612;2023-10-08T00:15:42;7.15;;;4.78;;
75061;SDS011;63641;46.526;24.612;2023-10-08T00:18:20;6.78;;;4.60;;
75061;SDS011;63641;46.526;24.612;2023-10-08T00:20:50;5.43;;;4.07;;
75061;SDS011;63641;46.526;24.612;2023-10-08T00:23:23;6.82;;;4.32;;
75061;SDS011;63641;46.526;24.612;2023-10-08T00:25:53;5.68;;;3.60;;
75061;SDS011;63641;46.526;24.612;2023-10-08T00:28:21;5.65;;;4.10;;
75061;SDS011;63641;46.526;24.612;2023-10-08T00:30:49;6.75;;;4.70;;
75061;SDS011;63641;46.526;24.612;2023-10-08T00:33:16;6.80;;;4.05;;
75061;SDS011;63641;46.526;24.612;2023-10-08T00:35:43;7.82;;;4.30;;
75061;SDS011;63641;46.526;24.612;2023-10-08T00:38:10;5.10;;;4.13;;
75061;SDS011;63641;46.526;24.612;2023-10-08T00:40:47;6.97;;;4.35;;
75061;SDS011;63641;46.526;24.612;2023-10-08T00:46:04;6.03;;;4.50;;
75061;SDS011;63641;46.526;24.612;2023-10-08T00:48:47;6.20;;;4.00;;
75061;SDS011;63641;46.526;24.612;2023-10-08T00:51:15;6.45;;;4.07;;
75061;SDS011;63641;46.526;24.612;2023-10-08T00:53:54;8.85;;;4.60;;
75061;SDS011;63641;46.526;24.612;2023-10-08T00:56:45;5.68;;;4.40;;
75061;SDS011;63641;46.526;24.612;2023-10-08T00:59:13;5.78;;;3.83;;
75061;SDS011;63641;46.526;24.612;2023-10-08T01:01:43;6.25;;;3.92;;
75061;SDS011;63641;46.526;24.612;2023-10-08T01:04:18;5.40;;;4.57;;
75061;SDS011;63641;46.526;24.612;2023-10-08T01:06:53;5.60;;;4.07;;
75061;SDS011;63641;46.526;24.612;2023-10-08T01:09:26;6.07;;;3.80;;
75061;SDS011;63641;46.526;24.612;2023-10-08T01:12:14;8.13;;;4.40;;
75061;SDS011;63641;46.526;24.612;2023-10-08T01:14:46;4.85;;;3.63;;
75061;SDS011;63641;46.526;24.612;2023-10-08T01:17:15;5.57;;;4.10;;
75061;SDS011;63641;46.526;24.612;2023-10-08T01:19:42;5.38;;;4.07;;
75061;SDS011;63641;46.526;24.612;2023-10-08T01:22:12;4.82;;;3.88;;
75061;SDS011;63641;46.526;24.612;2023-10-08T01:24:43;5.13;;;3.72;;
75061;SDS011;63641;46.526;24.612;2023-10-08T01:27:10;5.93;;;4.20;;
75061;SDS011;63641;46.526;24.612;2023-10-08T01:29:38;5.75;;;4.10;;
75061;SDS011;63641;46.526;24.612;2023-10-08T01:32:06;7.18;;;4.35;;
75061;SDS011;63641;46.526;24.612;2023-10-08T01:34:37;5.38;;;3.75;;
75061;SDS011;63641;46.526;24.612;2023-10-08T01:37:05;7.38;;;3.90;;
75061;SDS011;63641;46.526;24.612;2023-10-08T01:39:38;5.47;;;4.22;;
75061;SDS011;63641;46.526;24.612;2023-10-08T01:42:09;7.47;;;4.50;;
75061;SDS011;63641;46.526;24.612;2023-10-08T01:44:47;5.88;;;3.92;;
75061;SDS011;63641;46.526;24.612;2023-10-08T01:47:15;5.38;;;3.60;;
75061;SDS011;63641;46.526;24.612;2023-10-08T01:49:43;5.93;;;4.13;;
75061;SDS011;63641;46.526;24.612;2023-10-08T01:52:11;5.10;;;4.15;;
75061;SDS011;63641;46.526;24.612;2023-10-08T01:54:47;7.38;;;3.70;;
75061;SDS011;63641;46.526;24.612;2023-10-08T01:57:15;6.80;;;4.78;;
75061;SDS011;63641;46.526;24.612;2023-10-08T01:59:43;7.78;;;4.43;;
75061;SDS011;63641;46.526;24.612;2023-10-08T02:02:11;4.88;;;3.70;;
75061;SDS011;63641;46.526;24.612;2023-10-08T02:04:41;5.40;;;3.88;;
75061;SDS011;63641;46.526;24.612;2023-10-08T02:07:11;6.47;;;4.30;;
75061;SDS011;63641;46.526;24.612;2023-10-08T02:09:39;5.18;;;3.83;;
75061;SDS011;63641;46.526;24.612;2023-10-08T02:12:07;4.38;;;3.72;;
75061;SDS011;63641;46.526;24.612;2023-10-08T02:14:34;6.93;;;4.30;;
75061;SDS011;63641;46.526;24.612;2023-10-08T02:17:02;5.45;;;3.50;;
75061;SDS011;63641;46.526;24.612;2023-10-08T02:19:33;6.95;;;4.13;;
75061;SDS011;63641;46.526;24.612;2023-10-08T02:22:01;7.15;;;3.60;;
75061;SDS011;63641;46.526;24.612;2023-10-08T02:24:29;7.38;;;4.00;;
75061;SDS011;63641;46.526;24.612;2023-10-08T02:26:57;7.68;;;4.53;;
75061;SDS011;63641;46.526;24.612;2023-10-08T02:29:25;6.03;;;4.50;;
75061;SDS011;63641;46.526;24.612;2023-10-08T02:31:56;5.18;;;3.45;;
75061;SDS011;63641;46.526;24.612;2023-10-08T02:34:23;5.00;;;3.67;;
75061;SDS011;63641;46.526;24.612;2023-10-08T02:36:50;5.63;;;3.97;;
75061;SDS011;63641;46.526;24.612;2023-10-08T02:39:18;6.07;;;3.97;;
75061;SDS011;63641;46.526;24.612;2023-10-08T02:41:52;5.25;;;3.92;;
75061;SDS011;63641;46.526;24.612;2023-10-08T02:44:23;5.95;;;4.32;;
75061;SDS011;63641;46.526;24.612;2023-10-08T02:46:50;6.13;;;3.90;;
75061;SDS011;63641;46.526;24.612;2023-10-08T02:49:18;5.78;;;4.10;;
75061;SDS011;63641;46.526;24.612;2023-10-08T02:51:47;6.43;;;4.10;;
75061;SDS011;63641;46.526;24.612;2023-10-08T02:54:17;4.60;;;3.80;;
75061;SDS011;63641;46.526;24.612;2023-10-08T02:56:47;4.30;;;3.53;;
75061;SDS011;63641;46.526;24.612;2023-10-08T02:59:18;5.53;;;3.70;;
75061;SDS011;63641;46.526;24.612;2023-10-08T03:01:49;5.50;;;3.50;;
75061;SDS011;63641;46.526;24.612;2023-10-08T03:04:16;7.03;;;4.15;;
75061;SDS011;63641;46.526;24.612;2023-10-08T03:06:46;5.22;;;3.63;;
75061;SDS011;63641;46.526;24.612;2023-10-08T03:09:19;6.07;;;4.27;;
75061;SDS011;63641;46.526;24.612;2023-10-08T03:11:50;4.60;;;3.63;;
75061;SDS011;63641;46.526;24.612;2023-10-08T03:14:17;5.72;;;4.00;;
75061;SDS011;63641;46.526;24.612;2023-10-08T03:16:51;8.07;;;4.22;;
75061;SDS011;63641;46.526;24.612;2023-10-08T03:19:20;5.32;;;3.75;;
75061;SDS011;63641;46.526;24.612;2023-10-08T03:21:49;4.70;;;4.03;;
75061;SDS011;63641;46.526;24.612;2023-10-08T03:24:22;6.78;;;4.03;;
75061;SDS011;63641;46.526;24.612;2023-10-08T03:27:01;4.68;;;3.75;;
75061;SDS011;63641;46.526;24.612;2023-10-08T03:29:54;5.45;;;4.00;;
75061;SDS011;63641;46.526;24.612;2023-10-08T03:32:21;6.63;;;4.22;;
75061;SDS011;63641;46.526;24.612;2023-10-08T03:34:53;4.13;;;3.72;;
75061;SDS011;63641;46.526;24.612;2023-10-08T03:37:21;5.95;;;3.88;;
75061;SDS011;63641;46.526;24.612;2023-10-08T03:39:56;6.45;;;4.32;;
75061;SDS011;63641;46.526;24.612;2023-10-08T03:42:41;5.10;;;4.10;;
75061;SDS011;63641;46.526;24.612;2023-10-08T03:45:08;5.22;;;3.70;;
75061;SDS011;63641;46.526;24.612;2023-10-08T03:47:39;6.35;;;4.35;;
75061;SDS011;63641;46.526;24.612;2023-10-08T03:50:07;7.32;;;3.85;;
75061;SDS011;63641;46.526;24.612;2023-10-08T03:52:38;5.55;;;4.45;;
75061;SDS011;63641;46.526;24.612;2023-10-08T03:55:05;7.82;;;4.50;;
75061;SDS011;63641;46.526;24.612;2023-10-08T03:57:53;7.75;;;4.38;;
75061;SDS011;63641;46.526;24.612;2023-10-08T04:00:23;5.43;;;4.20;;
75061;SDS011;63641;46.526;24.612;2023-10-08T04:02:58;5.05;;;3.83;;
75061;SDS011;63641;46.526;24.612;2023-10-08T04:05:27;5.45;;;3.90;;
75061;SDS011;63641;46.526;24.612;2023-10-08T04:07:59;8.57;;;4.35;;
75061;SDS011;63641;46.526;24.612;2023-10-08T04:10:26;6.05;;;3.78;;
75061;SDS011;63641;46.526;24.612;2023-10-08T04:13:09;5.40;;;3.83;;
75061;SDS011;63641;46.526;24.612;2023-10-08T04:15:36;5.15;;;4.10;;
75061;SDS011;63641;46.526;24.612;2023-10-08T04:18:10;4.68;;;3.92;;
75061;SDS011;63641;46.526;24.612;2023-10-08T04:20:38;4.70;;;3.70;;
75061;SDS011;63641;46.526;24.612;2023-10-08T04:23:07;5.07;;;4.10;;
75061;SDS011;63641;46.526;24.612;2023-10-08T04:25:45;5.28;;;4.10;;
75061;SDS011;63641;46.526;24.612;2023-10-08T04:28:13;5.82;;;4.03;;
75061;SDS011;63641;46.526;24.612;2023-10-08T04:30:43;5.28;;;3.95;;
75061;SDS011;63641;46.526;24.612;2023-10-08T04:33:14;5.15;;;3.90;;
75061;SDS011;63641;46.526;24.612;2023-10-08T04:35:42;7.88;;;4.28;;
75061;SDS011;63641;46.526;24.612;2023-10-08T04:38:25;6.13;;;3.92;;
75061;SDS011;63641;46.526;24.612;2023-10-08T04:40:53;6.97;;;4.03;;
75061;SDS011;63641;46.526;24.612;2023-10-08T04:43:20;7.75;;;4.45;;
75061;SDS011;63641;46.526;24.612;2023-10-08T04:45:57;6.15;;;4.25;;
75061;SDS011;63641;46.526;24.612;2023-10-08T04:48:25;6.97;;;4.80;;
75061;SDS011;63641;46.526;24.612;2023-10-08T04:50:56;5.50;;;4.07;;
75061;SDS011;63641;46.526;24.612;2023-10-08T04:53:27;11.55;;;6.22;;
75061;SDS011;63641;46.526;24.612;2023-10-08T04:56:04;9.05;;;6.25;;
75061;SDS011;63641;46.526;24.612;2023-10-08T04:58:33;7.03;;;4.93;;
75061;SDS011;63641;46.526;24.612;2023-10-08T05:01:03;6.75;;;4.93;;
75061;SDS011;63641;46.526;24.612;2023-10-08T05:03:55;7.88;;;4.60;;
75061;SDS011;63641;46.526;24.612;2023-10-08T05:06:26;8.68;;;4.07;;
75061;SDS011;63641;46.526;24.612;2023-10-08T05:09:00;11.30;;;4.07;;
75061;SDS011;63641;46.526;24.612;2023-10-08T05:11:37;6.40;;;4.43;;
75061;SDS011;63641;46.526;24.612;2023-10-08T05:14:18;5.78;;;3.80;;
75061;SDS011;63641;46.526;24.612;2023-10-08T05:17:14;4.93;;;3.60;;
75061;SDS011;63641;46.526;24.612;2023-10-08T05:19:44;6.78;;;3.60;;
75061;SDS011;63641;46.526;24.612;2023-10-08T05:22:15;5.82;;;4.00;;
75061;SDS011;63641;46.526;24.612;2023-10-08T05:24:56;7.50;;;4.32;;
75061;SDS011;63641;46.526;24.612;2023-10-08T05:27:43;6.22;;;3.88;;
75061;SDS011;63641;46.526;24.612;2023-10-08T05:33:05;5.65;;;3.70;;
75061;SDS011;63641;46.526;24.612;2023-10-08T05:35:35;6.07;;;4.10;;
75061;SDS011;63641;46.526;24.612;2023-10-08T05:38:13;5.97;;;4.05;;
75061;SDS011;63641;46.526;24.612;2023-10-08T05:41:10;6.72;;;4.18;;
75061;SDS011;63641;46.526;24.612;2023-10-08T05:43:54;4.55;;;3.55;;
75061;SDS011;63641;46.526;24.612;2023-10-08T05:46:40;7.75;;;4.25;;
75061;SDS011;63641;46.526;24.612;2023-10-08T05:49:32;7.47;;;4.30;;
75061;SDS011;63641;46.526;24.612;2023-10-08T05:52:00;6.13;;;4.40;;
75061;SDS011;63641;46.526;24.612;2023-10-08T05:54:30;8.50;;;4.13;;
75061;SDS011;63641;46.526;24.612;2023-10-08T05:56:59;5.03;;;3.65;;
75061;SDS011;63641;46.526;24.612;2023-10-08T05:59:41;6.63;;;4.03;;
75061;SDS011;63641;46.526;24.612;2023-10-08T06:02:40;6.70;;;3.92;;
75061;SDS011;63641;46.526;24.612;2023-10-08T06:05:10;5.43;;;4.32;;
75061;SDS011;63641;46.526;24.612;2023-10-08T06:07:50;9.05;;;3.70;;
75061;SDS011;63641;46.526;24.612;2023-10-08T06:12:58;6.53;;;3.60;;
75061;SDS011;63641;46.526;24.612;2023-10-08T06:15:45;6.40;;;4.13;;
75061;SDS011;63641;46.526;24.612;2023-10-08T06:20:53;8.30;;;3.72;;
75061;SDS011;63641;46.526;24.612;2023-10-08T06:23:38;5.32;;;3.63;;
75061;SDS011;63641;46.526;24.612;2023-10-08T06:26:08;5.47;;;3.85;;
75061;SDS011;63641;46.526;24.612;2023-10-08T06:28:36;8.93;;;3.85;;
75061;SDS011;63641;46.526;24.612;2023-10-08T06:31:04;7.43;;;4.68;;
75061;SDS011;63641;46.526;24.612;2023-10-08T06:33:43;8.02;;;5.20;;
75061;SDS011;63641;46.526;24.612;2023-10-08T06:36:11;10.02;;;5.80;;
75061;SDS011;63641;46.526;24.612;2023-10-08T06:38:39;9.07;;;6.43;;
75061;SDS011;63641;46.526;24.612;2023-10-08T06:41:11;17.58;;;10.38;;
75061;SDS011;63641;46.526;24.612;2023-10-08T06:43:55;20.63;;;12.30;;
75061;SDS011;63641;46.526;24.612;2023-10-08T06:46:48;14.57;;;9.88;;
75061;SDS011;63641;46.526;24.612;2023-10-08T06:49:15;11.40;;;7.40;;
75061;SDS011;63641;46.526;24.612;2023-10-08T06:51:45;11.15;;;8.27;;
75061;SDS011;63641;46.526;24.612;2023-10-08T06:54:11;9.73;;;7.35;;
75061;SDS011;63641;46.526;24.612;2023-10-08T06:56:43;7.90;;;4.68;;
75061;SDS011;63641;46.526;24.612;2023-10-08T06:59:19;11.35;;;4.90;;
75061;SDS011;63641;46.526;24.612;2023-10-08T07:01:50;8.90;;;4.45;;
75061;SDS011;63641;46.526;24.612;2023-10-08T07:04:18;6.63;;;4.05;;
75061;SDS011;63641;46.526;24.612;2023-10-08T07:06:46;5.50;;;4.00;;
75061;SDS011;63641;46.526;24.612;2023-10-08T07:09:13;4.38;;;3.55;;
75061;SDS011;63641;46.526;24.612;2023-10-08T07:11:49;7.05;;;4.22;;
75061;SDS011;63641;46.526;24.612;2023-10-08T07:14:22;6.78;;;4.38;;
75061;SDS011;63641;46.526;24.612;2023-10-08T07:16:57;7.30;;;4.35;;
75061;SDS011;63641;46.526;24.612;2023-10-08T07:19:27;5.70;;;4.10;;
75061;SDS011;63641;46.526;24.612;2023-10-08T07:22:05;6.13;;;4.28;;
75061;SDS011;63641;46.526;24.612;2023-10-08T07:24:55;7.00;;;4.18;;
75061;SDS011;63641;46.526;24.612;2023-10-08T07:27:25;10.27;;;4.10;;
75061;SDS011;63641;46.526;24.612;2023-10-08T07:29:59;6.97;;;4.20;;
75061;SDS011;63641;46.526;24.612;2023-10-08T07:32:30;6.25;;;4.10;;
75061;SDS011;63641;46.526;24.612;2023-10-08T07:34:57;8.23;;;5.60;;
75061;SDS011;63641;46.526;24.612;2023-10-08T07:37:28;7.32;;;5.75;;
75061;SDS011;63641;46.526;24.612;2023-10-08T07:39:56;9.90;;;6.18;;
75061;SDS011;63641;46.526;24.612;2023-10-08T07:42:24;9.57;;;6.25;;
75061;SDS011;63641;46.526;24.612;2023-10-08T07:44:52;9.95;;;6.28;;
75061;SDS011;63641;46.526;24.612;2023-10-08T07:47:21;11.30;;;8.02;;
75061;SDS011;63641;46.526;24.612;2023-10-08T07:49:48;12.70;;;8.98;;
75061;SDS011;63641;46.526;24.612;2023-10-08T07:52:17;13.75;;;10.50;;
75061;SDS011;63641;46.526;24.612;2023-10-08T07:54:44;12.07;;;9.93;;
75061;SDS011;63641;46.526;24.612;2023-10-08T07:57:11;12.52;;;9.10;;
75061;SDS011;63641;46.526;24.612;2023-10-08T07:59:45;10.07;;;8.52;;
75061;SDS011;63641;46.526;24.612;2023-10-08T08:02:14;21.65;;;8.43;;
75061;SDS011;63641;46.526;24.612;2023-10-08T08:04:44;10.43;;;6.22;;
75061;SDS011;63641;46.526;24.612;2023-10-08T08:07:12;8.13;;;6.50;;
75061;SDS011;63641;46.526;24.612;2023-10-08T08:09:43;12.80;;;6.28;;
75061;SDS011;63641;46.526;24.612;2023-10-08T08:12:18;13.00;;;5.93;;
75061;SDS011;63641;46.526;24.612;2023-10-08T08:14:48;6.82;;;5.80;;
75061;SDS011;63641;46.526;24.612;2023-10-08T08:17:17;10.05;;;5.90;;
75061;SDS011;63641;46.526;24.612;2023-10-08T08:19:45;8.07;;;5.50;;
75061;SDS011;63641;46.526;24.612;2023-10-08T08:22:14;7.65;;;5.47;;
75061;SDS011;63641;46.526;24.612;2023-10-08T08:24:58;6.75;;;5.30;;
75061;SDS011;63641;46.526;24.612;2023-10-08T08:27:42;8.55;;;6.10;;
75061;SDS011;63641;46.526;24.612;2023-10-08T08:30:15;11.13;;;6.83;;
75061;SDS011;63641;46.526;24.612;2023-10-08T08:32:44;10.82;;;8.23;;
75061;SDS011;63641;46.526;24.612;2023-10-08T08:35:19;9.35;;;6.25;;
75061;SDS011;63641;46.526;24.612;2023-10-08T08:37:47;7.70;;;5.90;;
75061;SDS011;63641;46.526;24.612;2023-10-08T08:40:18;9.73;;;5.72;;
75061;SDS011;63641;46.526;24.612;2023-10-08T08:42:49;9.75;;;6.10;;
75061;SDS011;63641;46.526;24.612;2023-10-08T08:45:20;8.25;;;5.70;;
75061;SDS011;63641;46.526;24.612;2023-10-08T08:47:48;7.72;;;5.40;;
75061;SDS011;63641;46.526;24.612;2023-10-08T08:50:16;8.30;;;5.30;;
75061;SDS011;63641;46.526;24.612;2023-10-08T08:52:44;10.25;;;5.75;;
75061;SDS011;63641;46.526;24.612;2023-10-08T08:55:12;8.40;;;5.65;;
75061;SDS011;63641;46.526;24.612;2023-10-08T08:57:48;6.75;;;5.18;;
75061;SDS011;63641;46.526;24.612;2023-10-08T09:00:17;7.93;;;5.07;;
75061;SDS011;63641;46.526;24.612;2023-10-08T09:02:46;6.72;;;5.22;;
75061;SDS011;63641;46.526;24.612;2023-10-08T09:05:16;7.40;;;4.95;;
75061;SDS011;63641;46.526;24.612;2023-10-08T09:07:57;8.18;;;5.15;;
75061;SDS011;63641;46.526;24.612;2023-10-08T09:10:30;7.75;;;4.93;;
75061;SDS011;63641;46.526;24.612;2023-10-08T09:13:04;7.85;;;4.82;;
75061;SDS011;63641;46.526;24.612;2023-10-08T09:15:33;6.80;;;5.05;;
75061;SDS011;63641;46.526;24.612;2023-10-08T09:18:01;7.97;;;4.93;;
75061;SDS011;63641;46.526;24.612;2023-10-08T09:20:30;9.98;;;5.60;;
75061;SDS011;63641;46.526;24.612;2023-10-08T09:23:08;9.73;;;5.60;;
75061;SDS011;63641;46.526;24.612;2023-10-08T09:25:42;10.30;;;5.63;;
75061;SDS011;63641;46.526;24.612;2023-10-08T09:28:11;11.73;;;6.05;;
75061;SDS011;63641;46.526;24.612;2023-10-08T09:30:41;11.25;;;6.47;;
75061;SDS011;63641;46.526;24.612;2023-10-08T09:33:12;7.90;;;5.75;;
75061;SDS011;63641;46.526;24.612;2023-10-08T09:35:40;7.38;;;5.43;;
75061;SDS011;63641;46.526;24.612;2023-10-08T09:38:10;7.55;;;4.68;;
75061;SDS011;63641;46.526;24.612;2023-10-08T09:40:41;7.38;;;4.78;;
75061;SDS011;63641;46.526;24.612;2023-10-08T09:43:11;8.45;;;5.00;;
75061;SDS011;63641;46.526;24.612;2023-10-08T09:45:38;7.30;;;5.07;;
75061;SDS011;63641;46.526;24.612;2023-10-08T09:48:10;7.00;;;5.10;;
75061;SDS011;63641;46.526;24.612;2023-10-08T09:50:40;6.60;;;5.10;;
75061;SDS011;63641;46.526;24.612;2023-10-08T09:53:08;7.68;;;4.82;;
75061;SDS011;63641;46.526;24.612;2023-10-08T09:55:53;7.13;;;5.57;;
75061;SDS011;63641;46.526;24.612;2023-10-08T09:58:22;6.72;;;5.03;;
75061;SDS011;63641;46.526;24.612;2023-10-08T10:00:51;7.28;;;4.28;;
75061;SDS011;63641;46.526;24.612;2023-10-08T10:03:23;10.60;;;5.18;;
75061;SDS011;63641;46.526;24.612;2023-10-08T10:05:53;6.60;;;5.13;;
75061;SDS011;63641;46.526;24.612;2023-10-08T10:08:25;9.25;;;5.55;;
75061;SDS011;63641;46.526;24.612;2023-10-08T10:11:00;7.93;;;5.13;;
75061;SDS011;63641;46.526;24.612;2023-10-08T10:15:56;9.10;;;5.57;;
75061;SDS011;63641;46.526;24.612;2023-10-08T10:20:58;8.00;;;5.13;;
75061;SDS011;63641;46.526;24.612;2023-10-08T10:23:46;11.02;;;6.60;;
75061;SDS011;63641;46.526;24.612;2023-10-08T10:26:35;6.78;;;5.35;;
75061;SDS011;63641;46.526;24.612;2023-10-08T10:36:49;7.63;;;5.40;;
75061;SDS011;63641;46.526;24.612;2023-10-08T10:39:23;6.60;;;4.82;;
75061;SDS011;63641;46.526;24.612;2023-10-08T10:41:54;8.85;;;5.03;;
75061;SDS011;63641;46.526;24.612;2023-10-08T10:44:28;7.40;;;4.50;;
75061;SDS011;63641;46.526;24.612;2023-10-08T10:46:56;9.93;;;5.05;;
75061;SDS011;63641;46.526;24.612;2023-10-08T10:49:43;6.30;;;4.88;;
75061;SDS011;63641;46.526;24.612;2023-10-08T10:52:20;7.07;;;4.28;;
75061;SDS011;63641;46.526;24.612;2023-10-08T10:55:07;10.20;;;5.03;;
75061;SDS011;63641;46.526;24.612;2023-10-08T10:57:44;6.03;;;5.00;;
75061;SDS011;63641;46.526;24.612;2023-10-08T11:00:22;9.32;;;4.72;;
75061;SDS011;63641;46.526;24.612;2023-10-08T11:03:15;8.02;;;5.10;;
75061;SDS011;63641;46.526;24.612;2023-10-08T11:05:45;8.63;;;4.63;;
75061;SDS011;63641;46.526;24.612;2023-10-08T11:08:15;9.60;;;4.80;;
75061;SDS011;63641;46.526;24.612;2023-10-08T11:10:46;7.18;;;5.13;;
75061;SDS011;63641;46.526;24.612;2023-10-08T11:13:25;10.55;;;6.00;;
75061;SDS011;63641;46.526;24.612;2023-10-08T11:15:55;7.75;;;5.60;;
75061;SDS011;63641;46.526;24.612;2023-10-08T11:18:26;13.07;;;7.60;;
75061;SDS011;63641;46.526;24.612;2023-10-08T11:21:09;13.13;;;7.18;;
75061;SDS011;63641;46.526;24.612;2023-10-08T11:23:46;8.65;;;5.53;;
75061;SDS011;63641;46.526;24.612;2023-10-08T11:26:20;10.00;;;5.32;;
75061;SDS011;63641;46.526;24.612;2023-10-08T11:28:59;10.43;;;5.13;;
75061;SDS011;63641;46.526;24.612;2023-10-08T11:31:30;8.40;;;4.20;;
75061;SDS011;63641;46.526;24.612;2023-10-08T11:34:02;6.70;;;3.55;;
75061;SDS011;63641;46.526;24.612;2023-10-08T11:36:37;7.03;;;3.47;;
75061;SDS011;63641;46.526;24.612;2023-10-08T11:39:35;4.80;;;3.25;;
75061;SDS011;63641;46.526;24.612;2023-10-08T11:42:12;5.97;;;2.60;;
75061;SDS011;63641;46.526;24.612;2023-10-08T11:44:57;5.55;;;3.05;;
75061;SDS011;63641;46.526;24.612;2023-10-08T11:47:44;7.20;;;2.90;;
75061;SDS011;63641;46.526;24.612;2023-10-08T11:50:12;8.20;;;2.90;;
75061;SDS011;63641;46.526;24.612;2023-10-08T11:52:43;5.43;;;2.90;;
75061;SDS011;63641;46.526;24.612;2023-10-08T11:55:11;4.57;;;2.97;;
75061;SDS011;63641;46.526;24.612;2023-10-08T11:57:48;8.60;;;2.78;;
75061;SDS011;63641;46.526;24.612;2023-10-08T12:00:16;7.78;;;2.90;;
75061;SDS011;63641;46.526;24.612;2023-10-08T12:02:49;4.38;;;2.80;;
75061;SDS011;63641;46.526;24.612;2023-10-08T12:05:16;9.27;;;3.40;;
75061;SDS011;63641;46.526;24.612;2023-10-08T12:07:47;6.07;;;3.35;;
75061;SDS011;63641;46.526;24.612;2023-10-08T12:10:14;6.43;;;2.83;;
75061;SDS011;63641;46.526;24.612;2023-10-08T12:12:52;9.98;;;3.65;;
75061;SDS011;63641;46.526;24.612;2023-10-08T12:15:23;8.35;;;3.63;;
75061;SDS011;63641;46.526;24.612;2023-10-08T12:18:00;10.93;;;3.20;;
75061;SDS011;63641;46.526;24.612;2023-10-08T12:20:51;6.22;;;3.53;;
75061;SDS011;63641;46.526;24.612;2023-10-08T12:23:20;8.00;;;3.50;;
75061;SDS011;63641;46.526;24.612;2023-10-08T12:25:55;8.60;;;2.95;;
75061;SDS011;63641;46.526;24.612;2023-10-08T12:28:23;6.45;;;3.10;;
75061;SDS011;63641;46.526;24.612;2023-10-08T12:30:50;8.20;;;3.70;;
75061;SDS011;63641;46.526;24.612;2023-10-08T12:33:22;7.43;;;3.33;;
75061;SDS011;63641;46.526;24.612;2023-10-08T12:35:52;6.55;;;3.35;;
75061;SDS011;63641;46.526;24.612;2023-10-08T12:38:20;7.45;;;3.45;;
75061;SDS011;63641;46.526;24.612;2023-10-08T12:40:49;8.05;;;3.38;;
75061;SDS011;63641;46.526;24.612;2023-10-08T12:45:47;7.40;;;2.72;;
75061;SDS011;63641;46.526;24.612;2023-10-08T12:48:21;5.10;;;2.50;;
75061;SDS011;63641;46.526;24.612;2023-10-08T12:50:53;7.00;;;2.80;;
75061;SDS011;63641;46.526;24.612;2023-10-08T12:53:27;7.95;;;2.63;;
75061;SDS011;63641;46.526;24.612;2023-10-08T12:56:00;2.13;;;1.50;;
75061;SDS011;63641;46.526;24.612;2023-10-08T12:58:48;4.97;;;1.75;;
75061;SDS011;63641;46.526;24.612;2023-10-08T13:01:18;2.88;;;1.52;;
75061;SDS011;63641;46.526;24.612;2023-10-08T13:03:45;5.43;;;1.63;;
75061;SDS011;63641;46.526;24.612;2023-10-08T13:06:16;3.92;;;1.90;;
75061;SDS011;63641;46.526;24.612;2023-10-08T13:08:55;5.63;;;1.70;;
75061;SDS011;63641;46.526;24.612;2023-10-08T13:11:23;6.18;;;2.13;;
75061;SDS011;63641;46.526;24.612;2023-10-08T13:13:51;4.15;;;3.22;;
75061;SDS011;63641;46.526;24.612;2023-10-08T13:16:19;3.30;;;2.50;;
75061;SDS011;63641;46.526;24.612;2023-10-08T13:18:51;5.35;;;2.15;;
75061;SDS011;63641;46.526;24.612;2023-10-08T13:21:18;6.45;;;2.47;;
75061;SDS011;63641;46.526;24.612;2023-10-08T13:23:51;2.47;;;2.17;;
75061;SDS011;63641;46.526;24.612;2023-10-08T13:26:19;3.10;;;2.25;;
75061;SDS011;63641;46.526;24.612;2023-10-08T13:28:49;4.55;;;2.38;;
75061;SDS011;63641;46.526;24.612;2023-10-08T13:31:16;2.55;;;2.08;;
75061;SDS011;63641;46.526;24.612;2023-10-08T13:33:44;4.03;;;2.30;;
75061;SDS011;63641;46.526;24.612;2023-10-08T13:36:15;3.20;;;2.25;;
75061;SDS011;63641;46.526;24.612;2023-10-08T13:38:45;3.03;;;1.80;;
75061;SDS011;63641;46.526;24.612;2023-10-08T13:41:13;3.42;;;1.95;;
75061;SDS011;63641;46.526;24.612;2023-10-08T13:43:44;3.13;;;1.70;;
75061;SDS011;63641;46.526;24.612;2023-10-08T13:46:15;2.88;;;1.83;;
75061;SDS011;63641;46.526;24.612;2023-10-08T13:48:45;2.70;;;1.80;;
75061;SDS011;63641;46.526;24.612;2023-10-08T13:51:16;2.40;;;1.45;;
75061;SDS011;63641;46.526;24.612;2023-10-08T13:53:54;2.97;;;1.65;;
75061;SDS011;63641;46.526;24.612;2023-10-08T13:56:29;2.35;;;1.60;;
75061;SDS011;63641;46.526;24.612;2023-10-08T13:58:58;2.35;;;1.50;;
75061;SDS011;63641;46.526;24.612;2023-10-08T14:01:39;2.03;;;1.48;;
75061;SDS011;63641;46.526;24.612;2023-10-08T14:04:13;1.50;;;1.23;;
75061;SDS011;63641;46.526;24.612;2023-10-08T14:06:45;1.70;;;1.45;;
75061;SDS011;63641;46.526;24.612;2023-10-08T14:09:20;1.50;;;1.40;;
75061;SDS011;63641;46.526;24.612;2023-10-08T14:11:48;1.50;;;1.40;;
75061;SDS011;63641;46.526;24.612;2023-10-08T14:14:19;3.30;;;1.60;;
75061;SDS011;63641;46.526;24.612;2023-10-08T14:16:51;3.80;;;2.53;;
75061;SDS011;63641;46.526;24.612;2023-10-08T14:19:26;1.70;;;1.52;;
75061;SDS011;63641;46.526;24.612;2023-10-08T14:22:06;3.17;;;1.55;;
75061;SDS011;63641;46.526;24.612;2023-10-08T14:24:35;5.78;;;2.38;;
75061;SDS011;63641;46.526;24.612;2023-10-08T14:27:05;1.60;;;1.40;;
75061;SDS011;63641;46.526;24.612;2023-10-08T14:29:43;3.30;;;1.65;;
75061;SDS011;63641;46.526;24.612;2023-10-08T14:32:16;1.67;;;1.50;;
75061;SDS011;63641;46.526;24.612;2023-10-08T14:34:43;2.05;;;1.50;;
75061;SDS011;63641;46.526;24.612;2023-10-08T14:37:13;2.85;;;1.83;;
75061;SDS011;63641;46.526;24.612;2023-10-08T14:39:58;1.95;;;1.60;;
75061;SDS011;63641;46.526;24.612;2023-10-08T14:42:43;2.40;;;1.95;;
75061;SDS011;63641;46.526;24.612;2023-10-08T14:45:26;2.08;;;1.92;;
75061;SDS011;63641;46.526;24.612;2023-10-08T14:47:54;1.85;;;1.70;;
75061;SDS011;63641;46.526;24.612;2023-10-08T14:50:22;3.15;;;1.85;;
75061;SDS011;63641;46.526;24.612;2023-10-08T14:52:54;2.85;;;1.98;;
75061;SDS011;63641;46.526;24.612;2023-10-08T14:55:21;2.13;;;1.83;;
75061;SDS011;63641;46.526;24.612;2023-10-08T14:57:49;2.33;;;2.13;;
75061;SDS011;63641;46.526;24.612;2023-10-08T15:00:22;3.08;;;1.50;;
75061;SDS011;63641;46.526;24.612;2023-10-08T15:02:53;1.50;;;1.40;;
75061;SDS011;63641;46.526;24.612;2023-10-08T15:05:21;2.17;;;1.98;;
75061;SDS011;63641;46.526;24.612;2023-10-08T15:07:49;3.00;;;1.60;;
75061;SDS011;63641;46.526;24.612;2023-10-08T15:10:17;2.95;;;1.77;;
75061;SDS011;63641;46.526;24.612;2023-10-08T15:12:45;2.47;;;1.40;;
75061;SDS011;63641;46.526;24.612;2023-10-08T15:15:11;1.73;;;1.58;;
75061;SDS011;63641;46.526;24.612;2023-10-08T15:17:41;2.35;;;1.65;;
75061;SDS011;63641;46.526;24.612;2023-10-08T15:20:13;4.15;;;1.50;;
75061;SDS011;63641;46.526;24.612;2023-10-08T15:22:43;1.92;;;1.70;;
75061;SDS011;63641;46.526;24.612;2023-10-08T15:25:12;1.52;;;1.42;;
75061;SDS011;63641;46.526;24.612;2023-10-08T15:27:40;1.52;;;1.20;;
75061;SDS011;63641;46.526;24.612;2023-10-08T15:30:11;1.50;;;1.40;;